Time,TemperatureF,DewpointF,PressureIn,WindDirection,WindDirectionDegrees,WindSpeedMPH,WindSpeedGustMPH,Humidity,HourlyPrecipIn,Conditions,Clouds,dailyrainin,SolarRadiationWatts/m^2,SoftwareType,DateUTC
2013-03-28 12:52:00,49.0,16.0,-100.00,SE,129,3.0,5.0,26,-99.99,,,0.00,1071.000000,,2013-03-28 18:52:00,
2013-03-28 13:02:00,49.0,16.0,-100.00,SE,129,3.0,5.0,26,-99.99,,,0.00,1071.000000,,2013-03-28 19:02:00,
2013-03-28 13:12:00,49.0,16.0,-100.00,SE,129,3.0,5.0,26,-99.99,,,0.00,1071.000000,,2013-03-28 19:12:00,
2013-03-28 13:22:00,49.0,16.0,-100.00,SE,129,3.0,5.0,26,-99.99,,,0.00,1071.000000,,2013-03-28 19:22:00,
2013-03-28 13:43:00,49.0,15.0,-100.00,SSE,150,3.0,5.0,25,0.00,,,0.00,545.000000,,2013-03-28 19:43:00,
2013-03-28 13:52:00,49.0,15.0,-100.00,SSE,150,3.0,5.0,25,0.00,,,0.00,545.000000,,2013-03-28 19:52:00,
2013-03-28 14:03:00,49.0,15.0,-100.00,SSE,150,3.0,5.0,25,0.00,,,0.00,545.000000,,2013-03-28 20:03:00,
2013-03-28 14:12:00,49.0,15.0,-100.00,SSE,150,3.0,5.0,25,0.00,,,0.00,545.000000,,2013-03-28 20:12:00,
2013-03-28 14:22:00,49.0,15.0,-100.00,SSE,150,3.0,5.0,25,0.00,,,0.00,545.000000,,2013-03-28 20:22:00,
2013-03-28 14:42:00,53.0,18.0,-100.00,SE,130,5.0,9.0,25,0.00,,,0.00,1013.000000,,2013-03-28 20:42:00,
2013-03-28 14:53:00,53.0,18.0,-100.00,SE,130,5.0,9.0,25,0.00,,,0.00,1013.000000,,2013-03-28 20:53:00,
2013-03-28 15:02:00,53.0,18.0,-100.00,SE,130,5.0,9.0,25,0.00,,,0.00,1013.000000,,2013-03-28 21:02:00,
2013-03-28 15:12:00,53.0,18.0,-100.00,SE,130,5.0,9.0,25,0.00,,,0.00,1013.000000,,2013-03-28 21:12:00,
2013-03-28 15:22:00,53.0,18.0,-100.00,SE,130,5.0,9.0,25,0.00,,,0.00,1013.000000,,2013-03-28 21:22:00,
2013-03-28 15:43:00,48.0,20.0,-100.00,NE,53,3.0,9.0,32,0.00,,,0.00,625.000000,,2013-03-28 21:43:00,
2013-03-28 15:53:00,48.0,20.0,-100.00,NE,53,3.0,9.0,32,0.00,,,0.00,625.000000,,2013-03-28 21:53:00,
2013-03-28 16:02:00,48.0,20.0,-100.00,NE,53,3.0,9.0,32,0.00,,,0.00,625.000000,,2013-03-28 22:02:00,
2013-03-28 16:12:00,48.0,20.0,-100.00,NE,53,3.0,9.0,32,0.00,,,0.00,625.000000,,2013-03-28 22:12:00,
2013-03-28 16:22:00,48.0,20.0,-100.00,NE,53,3.0,9.0,32,0.00,,,0.00,625.000000,,2013-03-28 22:22:00,
2013-03-28 16:42:00,49.0,21.0,-100.00,NE,44,3.0,5.0,33,0.00,,,0.00,249.000000,,2013-03-28 22:42:00,
2013-03-28 16:52:00,49.0,21.0,-100.00,NE,44,3.0,5.0,33,0.00,,,0.00,249.000000,,2013-03-28 22:52:00,
2013-03-28 17:03:00,49.0,21.0,-100.00,NE,44,3.0,5.0,33,0.00,,,0.00,249.000000,,2013-03-28 23:03:00,
2013-03-28 17:12:00,49.0,21.0,-100.00,NE,44,3.0,5.0,33,0.00,,,0.00,249.000000,,2013-03-28 23:12:00,
2013-03-28 17:22:00,49.0,21.0,-100.00,NE,44,3.0,5.0,33,0.00,,,0.00,249.000000,,2013-03-28 23:22:00,
2013-03-28 17:42:00,49.0,20.0,-100.00,NNE,24,2.0,6.0,32,0.00,,,0.00,263.000000,,2013-03-28 23:42:00,
2013-03-28 17:53:00,49.0,20.0,-100.00,NNE,24,2.0,6.0,32,0.00,,,0.00,263.000000,,2013-03-28 23:53:00,
2013-03-28 18:02:00,49.0,20.0,-100.00,NNE,24,2.0,6.0,32,0.00,,,0.00,263.000000,,2013-03-29 00:02:00,
2013-03-28 18:12:00,49.0,20.0,-100.00,NNE,24,2.0,6.0,32,0.00,,,0.00,263.000000,,2013-03-29 00:12:00,
2013-03-28 18:22:00,49.0,20.0,-100.00,NNE,24,2.0,6.0,32,0.00,,,0.00,263.000000,,2013-03-29 00:22:00,
2013-03-28 18:42:00,47.0,24.0,-100.00,SW,236,2.0,3.0,40,0.00,,,-99.99,156.000000,,2013-03-29 00:42:00,
2013-03-28 18:52:00,47.0,24.0,-100.00,SW,236,2.0,3.0,40,0.00,,,-99.99,156.000000,,2013-03-29 00:52:00,
2013-03-28 19:02:00,47.0,24.0,-100.00,SW,236,2.0,3.0,40,0.00,,,-99.99,156.000000,,2013-03-29 01:02:00,
2013-03-28 19:12:00,47.0,24.0,-100.00,SW,236,2.0,3.0,40,0.00,,,-99.99,156.000000,,2013-03-29 01:12:00,
2013-03-28 19:22:00,47.0,24.0,-100.00,SW,236,2.0,3.0,40,0.00,,,-99.99,156.000000,,2013-03-29 01:22:00,
2013-03-28 19:42:00,40.0,24.0,-100.00,NNW,329,1.0,3.0,52,0.00,,,-99.99,42.000000,,2013-03-29 01:42:00,
2013-03-28 19:52:00,40.0,24.0,-100.00,NNW,329,1.0,3.0,52,0.00,,,-99.99,42.000000,,2013-03-29 01:52:00,
2013-03-28 20:02:00,40.0,24.0,-100.00,NNW,329,1.0,3.0,52,0.00,,,-99.99,42.000000,,2013-03-29 02:02:00,
2013-03-28 20:12:00,40.0,24.0,-100.00,NNW,329,1.0,3.0,52,0.00,,,-99.99,42.000000,,2013-03-29 02:12:00,
2013-03-28 20:22:00,40.0,24.0,-100.00,NNW,329,1.0,3.0,52,0.00,,,-99.99,42.000000,,2013-03-29 02:22:00,
2013-03-28 20:42:00,36.0,22.0,-100.00,WNW,287,3.0,3.0,57,0.00,,,-99.99,1.000000,,2013-03-29 02:42:00,
2013-03-28 20:53:00,36.0,22.0,-100.00,WNW,287,3.0,3.0,57,0.00,,,-99.99,1.000000,,2013-03-29 02:53:00,
2013-03-28 21:02:00,36.0,22.0,-100.00,WNW,287,3.0,3.0,57,0.00,,,-99.99,1.000000,,2013-03-29 03:02:00,
2013-03-28 21:12:00,36.0,22.0,-100.00,WNW,287,3.0,3.0,57,0.00,,,-99.99,1.000000,,2013-03-29 03:12:00,
2013-03-28 21:22:00,36.0,22.0,-100.00,WNW,287,3.0,3.0,57,0.00,,,-99.99,1.000000,,2013-03-29 03:22:00,
2013-03-28 21:43:00,36.0,23.0,-100.00,WNW,289,3.0,4.0,58,0.00,,,-99.99,0.000000,,2013-03-29 03:43:00,
2013-03-28 21:53:00,36.0,23.0,-100.00,WNW,289,3.0,4.0,58,0.00,,,-99.99,0.000000,,2013-03-29 03:53:00,
2013-03-28 22:03:00,36.0,23.0,-100.00,WNW,289,3.0,4.0,58,0.00,,,-99.99,0.000000,,2013-03-29 04:03:00,
2013-03-28 22:12:00,36.0,23.0,-100.00,WNW,289,3.0,4.0,58,0.00,,,-99.99,0.000000,,2013-03-29 04:12:00,
2013-03-28 22:22:00,36.0,23.0,-100.00,WNW,289,3.0,4.0,58,0.00,,,-99.99,0.000000,,2013-03-29 04:22:00,
2013-03-28 22:23:00,33.0,23.0,-100.00,WNW,294,3.0,4.0,66,0.00,,,-99.99,0.000000,,2013-03-29 04:23:00,
2013-03-28 22:43:00,33.0,23.0,-100.00,WNW,294,3.0,4.0,66,0.00,,,-99.99,0.000000,,2013-03-29 04:43:00,
2013-03-28 22:53:00,33.0,23.0,-100.00,WNW,294,3.0,4.0,66,0.00,,,-99.99,0.000000,,2013-03-29 04:53:00,
2013-03-28 23:03:00,33.0,23.0,-100.00,WNW,294,3.0,4.0,66,0.00,,,-99.99,0.000000,,2013-03-29 05:03:00,
2013-03-28 23:12:00,33.0,23.0,-100.00,WNW,294,3.0,4.0,66,0.00,,,-99.99,0.000000,,2013-03-29 05:12:00,
2013-03-28 23:23:00,32.0,22.0,-100.00,WSW,258,2.0,3.0,67,0.00,,,-99.99,0.000000,,2013-03-29 05:23:00,
2013-03-28 23:43:00,32.0,22.0,-100.00,WSW,258,2.0,3.0,67,0.00,,,-99.99,0.000000,,2013-03-29 05:43:00,
2013-03-28 23:52:00,32.0,22.0,-100.00,WSW,258,2.0,3.0,67,0.00,,,-99.99,0.000000,,2013-03-29 05:52:00,